createdAt,value
2023-02-20T00:01:55.941Z,16.57
2023-02-20T00:04:25.136Z,17.80
2023-02-20T00:06:53.036Z,15.13
2023-02-20T00:09:28.402Z,18.03
2023-02-20T00:11:55.253Z,16.23
2023-02-20T00:14:23.565Z,18.00
2023-02-20T00:16:50.628Z,21.77
2023-02-20T00:19:17.525Z,15.70
2023-02-20T00:21:52.098Z,17.63
2023-02-20T00:24:19.665Z,15.23
2023-02-20T00:26:51.810Z,19.83
2023-02-20T00:29:21.601Z,17.30
2023-02-20T00:31:56.504Z,17.57
2023-02-20T00:34:26.574Z,15.80
2023-02-20T00:36:54.007Z,18.77
2023-02-20T00:39:21.012Z,20.03
2023-02-20T00:41:48.847Z,17.90
2023-02-20T00:44:16.200Z,21.13
2023-02-20T00:46:43.179Z,20.13
2023-02-20T00:49:10.198Z,21.60
2023-02-20T00:51:39.625Z,21.93
2023-02-20T00:54:06.866Z,21.53
2023-02-20T00:56:33.801Z,21.17
2023-02-20T00:59:03.119Z,21.03
2023-02-20T01:01:30.528Z,19.87
2023-02-20T01:03:58.405Z,22.23
2023-02-20T01:06:25.467Z,24.40
2023-02-20T01:08:52.933Z,21.67
2023-02-20T01:11:21.215Z,22.50
2023-02-20T01:13:49.532Z,29.73
2023-02-20T01:16:17.610Z,25.23
2023-02-20T01:18:46.407Z,31.13
2023-02-20T01:21:13.202Z,30.03
2023-02-20T01:23:44.130Z,29.97
2023-02-20T01:26:12.375Z,25.17
2023-02-20T01:28:39.452Z,31.07
2023-02-20T01:31:07.871Z,29.00
2023-02-20T01:33:34.837Z,31.57
2023-02-20T01:36:01.652Z,34.47
2023-02-20T01:38:28.744Z,34.23
2023-02-20T01:40:55.794Z,33.73
2023-02-20T01:43:22.649Z,28.20
2023-02-20T01:45:49.582Z,33.60
2023-02-20T01:48:23.842Z,34.10
2023-02-20T01:50:59.164Z,31.37
2023-02-20T01:53:29.578Z,36.10
2023-02-20T01:56:08.301Z,40.37
2023-02-20T01:58:49.779Z,32.40
2023-02-20T02:01:16.656Z,36.07
2023-02-20T02:03:48.794Z,35.20
2023-02-20T02:06:16.974Z,30.90
2023-02-20T02:08:45.327Z,36.63
2023-02-20T02:11:17.148Z,35.90
2023-02-20T02:13:44.259Z,39.63
2023-02-20T02:16:14.113Z,34.67
2023-02-20T02:18:47.994Z,36.47
2023-02-20T02:21:43.852Z,35.93
2023-02-20T02:24:46.468Z,36.87
2023-02-20T02:27:34.846Z,33.60
2023-02-20T02:30:39.664Z,38.90
2023-02-20T02:33:34.912Z,34.17
2023-02-20T02:36:20.641Z,32.93
2023-02-20T02:38:56.591Z,37.80
2023-02-20T02:41:29.539Z,37.63
2023-02-20T02:44:19.574Z,39.57
2023-02-20T02:47:23.909Z,43.67
2023-02-20T02:50:05.454Z,38.63
2023-02-20T02:53:00.999Z,47.50
2023-02-20T02:55:30.278Z,44.60
2023-02-20T02:57:57.641Z,47.07
2023-02-20T03:00:41.766Z,46.43
2023-02-20T03:03:08.615Z,52.90
2023-02-20T03:05:49.566Z,55.10
2023-02-20T03:08:22.565Z,52.20
2023-02-20T03:10:53.503Z,52.73
2023-02-20T03:13:20.730Z,55.43
2023-02-20T03:15:52.839Z,53.60
2023-02-20T03:18:31.592Z,56.00
2023-02-20T03:21:08.920Z,71.93
2023-02-20T03:23:41.579Z,59.17
2023-02-20T03:26:19.006Z,62.00
2023-02-20T03:28:55.412Z,58.30
2023-02-20T03:31:29.999Z,60.70
2023-02-20T03:34:27.435Z,57.43
2023-02-20T03:37:24.952Z,63.97
2023-02-20T03:40:14.991Z,60.77
2023-02-20T03:43:06.101Z,59.10
2023-02-20T03:45:36.799Z,63.67
2023-02-20T03:48:10.199Z,65.43
2023-02-20T03:50:56.958Z,73.83
2023-02-20T03:53:25.855Z,58.93
2023-02-20T03:55:55.759Z,59.80
2023-02-20T03:58:26.098Z,61.17
2023-02-20T04:00:58.558Z,63.80
2023-02-20T04:03:29.825Z,67.83
2023-02-20T04:05:59.136Z,72.10
2023-02-20T04:08:44.565Z,60.53
2023-02-20T04:11:16.785Z,66.63
2023-02-20T04:13:45.009Z,67.47
2023-02-20T04:16:12.754Z,67.47
2023-02-20T04:18:40.045Z,67.83
2023-02-20T04:21:28.042Z,71.63
2023-02-20T04:24:20.566Z,62.73
2023-02-20T04:26:47.558Z,63.80
2023-02-20T04:29:14.624Z,65.90
2023-02-20T04:31:41.920Z,58.63
2023-02-20T04:34:09.011Z,57.97
2023-02-20T04:36:35.902Z,57.97
2023-02-20T04:39:02.845Z,60.60
2023-02-20T04:41:31.914Z,52.53
2023-02-20T04:44:17.487Z,52.93
2023-02-20T04:46:46.482Z,60.33
2023-02-20T04:49:13.304Z,61.17
2023-02-20T04:51:42.820Z,57.57
2023-02-20T04:54:09.873Z,62.60
2023-02-20T04:56:36.712Z,64.90
2023-02-20T04:59:03.857Z,54.53
2023-02-20T05:01:32.197Z,57.57
2023-02-20T05:03:59.142Z,58.17
2023-02-20T05:06:26.087Z,63.13
2023-02-20T05:08:53.272Z,61.20
2023-02-20T05:11:20.160Z,57.57
2023-02-20T05:13:46.960Z,61.53
2023-02-20T05:16:15.421Z,63.17
2023-02-20T05:18:42.571Z,56.93
2023-02-20T05:21:32.972Z,57.93
2023-02-20T05:24:00.004Z,65.50
2023-02-20T05:26:27.069Z,62.50
2023-02-20T05:28:54.088Z,60.93
2023-02-20T05:31:21.198Z,59.77
2023-02-20T05:33:48.217Z,58.43
2023-02-20T05:36:16.078Z,66.87
2023-02-20T05:38:47.929Z,70.33
2023-02-20T05:41:19.077Z,69.60
2023-02-20T05:43:48.359Z,61.00
2023-02-20T05:46:16.682Z,61.90
2023-02-20T05:48:45.560Z,70.13
2023-02-20T05:51:21.299Z,61.67
2023-02-20T05:53:48.210Z,62.50
2023-02-20T05:56:16.904Z,57.40
2023-02-20T05:58:44.564Z,60.50
2023-02-20T06:01:18.976Z,59.80
2023-02-20T06:05:10.869Z,60.67
2023-02-20T06:07:11.970Z,56.97
2023-02-20T06:09:43.545Z,57.00
2023-02-20T06:12:17.528Z,64.20
2023-02-20T06:14:45.082Z,53.97
2023-02-20T06:17:12.033Z,51.07
2023-02-20T06:19:42.289Z,52.87
2023-02-20T06:22:09.686Z,56.77
2023-02-20T06:24:36.524Z,54.37
2023-02-20T06:27:05.089Z,56.90
2023-02-20T06:29:32.148Z,55.33
2023-02-20T06:32:00.358Z,54.20
2023-02-20T06:34:31.602Z,47.77
2023-02-20T06:36:59.260Z,48.23
2023-02-20T06:39:27.029Z,51.08
2023-02-20T06:41:53.884Z,55.33
2023-02-20T06:44:20.800Z,54.50
2023-02-20T06:46:47.797Z,48.00
2023-02-20T06:49:18.299Z,51.37
2023-02-20T06:51:45.204Z,45.60
2023-02-20T06:54:13.543Z,44.70
2023-02-20T06:56:46.793Z,48.00
2023-02-20T06:59:15.137Z,43.23
2023-02-20T07:01:43.718Z,43.57
2023-02-20T07:04:22.209Z,43.23
2023-02-20T07:06:49.393Z,43.83
2023-02-20T07:09:16.887Z,44.70
2023-02-20T07:11:44.077Z,48.60
2023-02-20T07:14:12.055Z,39.43
2023-02-20T07:16:38.996Z,47.07
2023-02-20T07:19:05.877Z,43.20
2023-02-20T07:21:32.813Z,39.53
2023-02-20T07:24:02.822Z,43.33
2023-02-20T07:26:31.527Z,42.27
2023-02-20T07:29:00.837Z,40.43
2023-02-20T07:31:28.010Z,34.80
2023-02-20T07:33:55.151Z,41.53
2023-02-20T07:36:22.309Z,35.93
2023-02-20T07:38:57.523Z,36.73
2023-02-20T07:41:29.686Z,37.53
2023-02-20T07:43:59.662Z,32.47
2023-02-20T07:46:26.625Z,34.37
2023-02-20T07:48:53.617Z,41.23
2023-02-20T07:51:20.801Z,31.60
2023-02-20T07:53:53.197Z,39.03
2023-02-20T07:56:21.109Z,39.07
2023-02-20T07:58:48.506Z,32.67
2023-02-20T08:01:15.777Z,32.00
2023-02-20T08:03:44.242Z,29.90
2023-02-20T08:06:11.488Z,34.03
2023-02-20T08:08:38.544Z,33.33
2023-02-20T08:11:09.876Z,29.70
2023-02-20T08:13:37.371Z,28.20
2023-02-20T08:16:04.564Z,29.03
2023-02-20T08:18:31.614Z,36.37
2023-02-20T08:20:58.632Z,30.80
2023-02-20T08:23:25.957Z,34.17
2023-02-20T08:25:52.997Z,30.20
2023-02-20T08:28:20.100Z,30.70
2023-02-20T08:30:47.391Z,32.40
2023-02-20T08:33:15.392Z,35.70
2023-02-20T08:35:42.779Z,31.57
2023-02-20T08:38:24.993Z,40.23
2023-02-20T08:40:54.397Z,30.30
2023-02-20T08:43:22.751Z,32.67
2023-02-20T08:45:50.012Z,26.60
2023-02-20T08:48:18.328Z,26.03
2023-02-20T08:50:46.966Z,33.03
2023-02-20T08:53:15.442Z,26.17
2023-02-20T08:55:42.918Z,28.50
2023-02-20T08:58:10.229Z,31.77
2023-02-20T09:00:37.160Z,26.23
2023-02-20T09:03:07.539Z,24.40
2023-02-20T09:05:36.952Z,29.93
2023-02-20T09:08:05.199Z,32.10
2023-02-20T09:10:32.569Z,25.10
2023-02-20T09:13:03.110Z,23.40
2023-02-20T09:15:31.749Z,24.40
2023-02-20T09:17:58.571Z,26.20
2023-02-20T09:20:25.407Z,25.03
2023-02-20T09:22:57.330Z,27.93
2023-02-20T09:25:24.207Z,22.70
2023-02-20T09:27:51.325Z,29.73
2023-02-20T09:30:21.121Z,27.40
2023-02-20T09:32:51.003Z,32.43
2023-02-20T09:35:27.386Z,33.60
2023-02-20T09:37:54.403Z,30.77
2023-02-20T09:40:28.438Z,26.47
2023-02-20T09:43:36.869Z,29.43
2023-02-20T09:46:13.804Z,33.60
2023-02-20T09:49:06.886Z,26.67
2023-02-20T09:51:38.842Z,26.97
2023-02-20T09:54:13.460Z,36.83
2023-02-20T09:56:50.727Z,28.70
2023-02-20T09:59:37.942Z,35.00
2023-02-20T10:02:14.718Z,25.60
2023-02-20T10:05:00.850Z,31.27
2023-02-20T10:07:38.405Z,31.53
2023-02-20T10:10:28.168Z,25.40
2023-02-20T10:13:09.818Z,35.73
2023-02-20T10:15:55.623Z,32.20
2023-02-20T10:18:37.800Z,34.23
2023-02-20T10:21:10.586Z,35.57
2023-02-20T10:24:05.803Z,32.93
2023-02-20T10:26:43.386Z,33.73
2023-02-20T10:29:18.641Z,35.40
2023-02-20T10:31:58.166Z,38.87
2023-02-20T10:34:32.971Z,35.33
2023-02-20T10:37:16.874Z,34.10
2023-02-20T10:39:52.240Z,29.83
2023-02-20T10:42:28.189Z,34.30
2023-02-20T10:45:02.975Z,36.77
2023-02-20T10:47:33.816Z,32.53
2023-02-20T10:50:16.647Z,30.60
2023-02-20T10:53:04.254Z,30.83
2023-02-20T10:55:48.638Z,28.80
2023-02-20T10:58:45.380Z,26.53
2023-02-20T11:01:24.417Z,32.93
2023-02-20T11:04:00.510Z,30.33
2023-02-20T11:06:40.681Z,28.27
2023-02-20T11:09:10.353Z,36.63
2023-02-20T11:11:42.127Z,32.87
2023-02-20T11:14:40.093Z,27.17
2023-02-20T11:17:16.252Z,23.67
2023-02-20T11:20:07.360Z,26.57
2023-02-20T11:22:45.836Z,23.67
2023-02-20T11:25:19.764Z,24.97
2023-02-20T11:27:56.687Z,29.20
2023-02-20T11:30:35.247Z,24.53
2023-02-20T11:33:06.296Z,22.93
2023-02-20T11:35:44.710Z,24.90
2023-02-20T11:38:23.569Z,28.07
2023-02-20T11:40:53.472Z,26.10
2023-02-20T11:43:28.501Z,24.03
2023-02-20T11:46:27.179Z,23.03
2023-02-20T11:49:07.449Z,30.67
2023-02-20T11:51:46.450Z,27.27
2023-02-20T11:54:22.869Z,31.23
2023-02-20T11:57:01.713Z,28.00
2023-02-20T11:59:38.782Z,28.87
2023-02-20T12:02:13.510Z,29.93
2023-02-20T12:04:42.738Z,32.03
2023-02-20T12:07:28.985Z,29.83
2023-02-20T12:10:01.257Z,32.03
2023-02-20T12:12:32.509Z,30.43
2023-02-20T12:14:59.454Z,30.60
2023-02-20T12:17:41.712Z,31.90
2023-02-20T12:20:22.678Z,39.00
2023-02-20T12:23:04.546Z,41.23
2023-02-20T12:25:52.556Z,33.50
2023-02-20T12:28:52.168Z,34.83
2023-02-20T12:31:34.135Z,39.97
2023-02-20T12:34:30.851Z,37.30
2023-02-20T12:37:18.167Z,32.63
2023-02-20T12:40:05.695Z,34.27
2023-02-20T12:42:57.077Z,34.20
2023-02-20T12:45:31.097Z,44.37
2023-02-20T12:48:29.699Z,39.10
2023-02-20T12:51:25.848Z,39.80
2023-02-20T12:54:08.472Z,44.50
2023-02-20T12:57:03.242Z,40.83
2023-02-20T13:00:02.655Z,40.20
2023-02-20T13:02:41.788Z,35.70
2023-02-20T13:05:14.930Z,39.07
2023-02-20T13:08:01.770Z,43.00
2023-02-20T13:10:34.394Z,41.97
2023-02-20T13:13:01.842Z,39.03
2023-02-20T13:15:57.577Z,43.93
2023-02-20T13:18:51.528Z,41.27
2023-02-20T13:21:35.773Z,44.43
2023-02-20T13:24:21.073Z,40.47
2023-02-20T13:26:56.340Z,38.63
2023-02-20T13:29:29.901Z,37.80
2023-02-20T13:32:23.902Z,42.70
2023-02-20T13:34:50.976Z,40.20
2023-02-20T13:37:38.602Z,39.90
2023-02-20T13:40:27.166Z,41.77
2023-02-20T13:43:12.802Z,37.77
2023-02-20T13:45:42.002Z,46.37
2023-02-20T13:48:29.011Z,41.90
2023-02-20T13:51:20.672Z,36.47
2023-02-20T13:54:01.453Z,43.37
2023-02-20T13:56:39.937Z,41.90
2023-02-20T13:59:19.551Z,34.80
2023-02-20T14:02:10.086Z,35.77
2023-02-20T14:04:38.421Z,42.67
2023-02-20T14:07:05.548Z,38.63
2023-02-20T14:09:33.534Z,37.63
2023-02-20T14:12:13.253Z,43.33
2023-02-20T14:14:46.076Z,39.17
2023-02-20T14:17:21.040Z,39.03
2023-02-20T14:19:55.642Z,36.57
2023-02-20T14:22:32.190Z,35.73
2023-02-20T14:25:03.479Z,37.97
2023-02-20T14:27:33.605Z,38.10
2023-02-20T14:30:12.148Z,39.23
2023-02-20T14:32:44.355Z,36.70
2023-02-20T14:35:28.373Z,38.67
2023-02-20T14:38:46.481Z,40.80
2023-02-20T14:41:21.785Z,42.57
2023-02-20T14:44:00.227Z,38.27
2023-02-20T14:46:33.377Z,42.67
2023-02-20T14:49:06.076Z,40.40
2023-02-20T14:51:38.962Z,39.60
2023-02-20T14:54:17.883Z,43.50
2023-02-20T14:56:46.282Z,37.17
2023-02-20T14:59:38.527Z,42.97
2023-02-20T15:02:42.268Z,38.47
2023-02-20T15:05:13.922Z,49.50
2023-02-20T15:07:43.320Z,51.10
2023-02-20T15:10:34.093Z,42.63
2023-02-20T15:13:19.960Z,49.40
2023-02-20T15:15:50.683Z,49.90
2023-02-20T15:18:37.019Z,55.80
2023-02-20T15:21:05.049Z,52.13
2023-02-20T15:23:34.559Z,56.10
2023-02-20T15:26:33.086Z,54.30
2023-02-20T15:29:19.896Z,53.30
2023-02-20T15:32:01.845Z,55.20
2023-02-20T15:34:34.511Z,51.40
2023-02-20T15:37:14.305Z,46.77
2023-02-20T15:39:41.659Z,57.30
2023-02-20T15:42:12.395Z,53.87
2023-02-20T15:44:39.456Z,54.13
2023-02-20T15:47:08.045Z,48.27
2023-02-20T15:49:44.481Z,58.00
2023-02-20T15:52:19.896Z,56.13
2023-02-20T15:54:53.755Z,50.30
2023-02-20T15:57:21.185Z,51.03
2023-02-20T15:59:50.342Z,53.33
2023-02-20T16:02:21.547Z,53.00
2023-02-20T16:05:30.267Z,53.57
2023-02-20T16:07:57.217Z,54.10
2023-02-20T16:10:25.874Z,51.00
2023-02-20T16:12:55.926Z,52.03
2023-02-20T16:15:23.235Z,55.13
2023-02-20T16:17:50.472Z,54.30
2023-02-20T16:20:21.238Z,57.20
2023-02-20T16:22:48.365Z,57.27
2023-02-20T16:25:18.445Z,62.03
2023-02-20T16:27:49.577Z,58.53
2023-02-20T16:30:38.868Z,60.30
2023-02-20T16:33:18.944Z,54.10
2023-02-20T16:35:47.519Z,59.00
2023-02-20T16:38:16.647Z,63.03
2023-02-20T16:40:43.507Z,65.13
2023-02-20T16:43:15.526Z,63.97
2023-02-20T16:45:45.552Z,60.37
2023-02-20T16:48:20.261Z,66.40
2023-02-20T16:50:53.806Z,69.57
2023-02-20T16:53:31.866Z,66.20
2023-02-20T16:55:59.983Z,71.00
2023-02-20T16:58:26.781Z,64.33
2023-02-20T17:00:57.829Z,61.13
2023-02-20T17:03:30.129Z,64.60
2023-02-20T17:06:00.042Z,63.00
2023-02-20T17:08:30.944Z,55.00
2023-02-20T17:11:02.402Z,56.30
2023-02-20T17:13:30.388Z,60.08
2023-02-20T17:15:57.338Z,54.77
2023-02-20T17:18:24.459Z,55.43
2023-02-20T17:20:51.430Z,57.30
2023-02-20T17:23:19.498Z,53.93
2023-02-20T17:25:46.412Z,57.13
2023-02-20T17:28:15.798Z,56.90
2023-02-20T17:30:43.855Z,56.60
2023-02-20T17:33:16.106Z,57.17
2023-02-20T17:35:43.159Z,62.17
2023-02-20T17:38:11.716Z,60.93
2023-02-20T17:40:38.894Z,61.57
2023-02-20T17:43:07.309Z,57.30
2023-02-20T17:45:37.836Z,60.33
2023-02-20T17:48:05.599Z,61.60
2023-02-20T17:50:32.555Z,58.00
2023-02-20T17:52:59.674Z,52.73
2023-02-20T17:55:27.764Z,55.07
2023-02-20T17:57:57.065Z,56.53
2023-02-20T18:00:24.417Z,61.10
2023-02-20T18:02:51.524Z,60.63
2023-02-20T18:05:18.876Z,63.73
2023-02-20T18:07:46.548Z,58.23
2023-02-20T18:10:13.416Z,59.00
2023-02-20T18:12:42.276Z,59.10
2023-02-20T18:15:10.429Z,63.27
2023-02-20T18:17:46.002Z,65.00
2023-02-20T18:20:20.870Z,66.47
2023-02-20T18:22:55.190Z,68.07
2023-02-20T18:25:39.101Z,60.80
2023-02-20T18:28:11.724Z,59.00
2023-02-20T18:30:42.837Z,62.93
2023-02-20T18:33:18.289Z,62.27
2023-02-20T18:35:50.595Z,62.40
2023-02-20T18:38:27.950Z,64.77
2023-02-20T18:40:58.906Z,68.80
2023-02-20T18:43:26.855Z,74.03
2023-02-20T18:46:05.995Z,69.63
2023-02-20T18:48:37.645Z,64.50
2023-02-20T18:51:12.843Z,65.77
2023-02-20T18:53:47.935Z,68.47
2023-02-20T18:56:15.620Z,72.73
2023-02-20T18:58:50.160Z,70.00
2023-02-20T19:01:19.968Z,68.80
2023-02-20T19:03:54.532Z,66.17
2023-02-20T19:06:33.111Z,62.30
2023-02-20T19:09:04.429Z,68.07
2023-02-20T19:11:36.144Z,72.32
2023-02-20T19:14:09.576Z,62.23
2023-02-20T19:16:36.721Z,66.37
2023-02-20T19:19:04.742Z,68.10
2023-02-20T19:21:33.892Z,64.27
2023-02-20T19:24:00.928Z,65.33
2023-02-20T19:26:52.263Z,68.80
2023-02-20T19:29:19.498Z,67.93
2023-02-20T19:31:49.671Z,66.83
2023-02-20T19:34:29.354Z,59.23
2023-02-20T19:37:03.410Z,64.50
2023-02-20T19:39:36.268Z,68.00
2023-02-20T19:42:11.458Z,70.63
2023-02-20T19:44:44.087Z,64.20
2023-02-20T19:47:54.328Z,63.63
2023-02-20T19:50:33.024Z,70.17
2023-02-20T19:53:15.058Z,71.00
2023-02-20T19:55:42.281Z,70.37
2023-02-20T19:58:45.001Z,60.30
2023-02-20T20:04:03.806Z,65.87
2023-02-20T20:06:35.432Z,67.20
2023-02-20T20:09:34.983Z,64.00
2023-02-20T20:12:19.467Z,58.23
2023-02-20T20:14:54.502Z,58.53
2023-02-20T20:17:26.740Z,61.57
2023-02-20T20:20:00.754Z,53.57
2023-02-20T20:22:43.075Z,65.10
2023-02-20T20:25:15.970Z,60.63
2023-02-20T20:27:59.212Z,60.20
2023-02-20T20:30:47.490Z,63.87
2023-02-20T20:33:18.704Z,58.20
2023-02-20T20:35:49.416Z,60.10
2023-02-20T20:41:05.283Z,62.53
2023-02-20T20:43:41.398Z,59.27
2023-02-20T20:46:08.250Z,61.73
2023-02-20T20:48:35.045Z,66.57
2023-02-20T20:51:02.149Z,67.67
2023-02-20T20:53:29.047Z,63.93
2023-02-20T20:55:55.991Z,61.50
2023-02-20T20:58:22.930Z,62.37
2023-02-20T21:00:49.935Z,66.77
2023-02-20T21:03:16.957Z,75.70
2023-02-20T21:05:43.903Z,71.83
2023-02-20T21:08:10.715Z,66.83
2023-02-20T21:10:40.668Z,72.90
2023-02-20T21:13:07.596Z,74.20
2023-02-20T21:15:35.526Z,71.97
2023-02-20T21:18:03.974Z,73.43
2023-02-20T21:20:37.085Z,76.17
2023-02-20T21:23:10.895Z,67.87
2023-02-20T21:25:38.536Z,75.23
2023-02-20T21:28:05.447Z,75.40
2023-02-20T21:30:32.430Z,82.63
2023-02-20T21:33:05.162Z,86.77
2023-02-20T21:35:39.852Z,91.33
2023-02-20T21:38:06.997Z,86.43
2023-02-20T21:40:34.908Z,96.97
2023-02-20T21:43:20.635Z,93.17
2023-02-20T21:45:49.787Z,88.17
2023-02-20T21:48:19.733Z,94.10
2023-02-20T21:50:46.758Z,104.00
2023-02-20T21:53:16.902Z,102.93
2023-02-20T21:55:44.588Z,97.23
2023-02-20T21:58:12.021Z,98.83
2023-02-20T22:00:38.755Z,96.57
2023-02-20T22:03:05.549Z,89.27
2023-02-20T22:05:33.452Z,98.93
2023-02-20T22:08:19.142Z,93.30
2023-02-20T22:11:04.835Z,100.77
2023-02-20T22:13:50.317Z,93.30
2023-02-20T22:16:39.287Z,97.43
2023-02-20T22:19:24.776Z,94.20
2023-02-20T22:22:10.677Z,87.80
2023-02-20T22:24:56.008Z,85.80
2023-02-20T22:27:41.303Z,91.07
2023-02-20T22:30:27.661Z,92.30
2023-02-20T22:33:13.290Z,96.13
2023-02-20T22:36:01.763Z,87.33
2023-02-20T22:38:47.140Z,93.17
2023-02-20T22:41:40.618Z,99.83
2023-02-20T22:44:26.073Z,99.10
2023-02-20T22:47:11.422Z,98.53
2023-02-20T22:49:56.900Z,100.20
2023-02-20T22:52:42.236Z,99.60
2023-02-20T22:55:30.044Z,111.63
2023-02-20T22:58:15.744Z,109.17
2023-02-20T23:01:01.275Z,112.80
2023-02-20T23:03:46.747Z,93.60
2023-02-20T23:06:39.555Z,93.10
2023-02-20T23:09:26.416Z,94.83
2023-02-20T23:12:11.753Z,91.17
2023-02-20T23:14:57.274Z,91.93
2023-02-20T23:17:42.644Z,93.10
2023-02-20T23:20:32.436Z,87.60
2023-02-20T23:23:18.004Z,93.03
2023-02-20T23:26:03.959Z,91.17
2023-02-20T23:28:49.964Z,87.30
2023-02-20T23:31:36.223Z,85.27
2023-02-20T23:34:23.508Z,74.83
2023-02-20T23:37:13.696Z,77.87
2023-02-20T23:39:58.918Z,84.70
2023-02-20T23:42:44.643Z,77.93
2023-02-20T23:45:29.910Z,76.50
2023-02-20T23:48:15.513Z,70.30
2023-02-20T23:51:00.942Z,74.60
2023-02-20T23:53:47.389Z,73.83
2023-02-20T23:56:33.792Z,67.70
2023-02-20T23:59:19.229Z,71.17
